Winnie, Texas
Current Conditions -  °F | °C
As of 2:15 AM on Friday 28 Nov 2014 (Local Time) from KBMT Reporting Station
Clear Clear  
Wind Chill: 37°   Ceiling: Unl
Heat Index: 37°   Visibility: 10mi
Dew Point: 37°   Wind: 3mph
Humidity: 97%   Direction: 360°N
Pressure: 30.41"   Gusts: NA
Location:  29.82°N, 94.38°W
Report Text: KBMT 280815Z AUTO 36003KT 10SM CLR 03/03 A3041 RMK AO2 T00300025
Loading
Personal Weather Stations






























Interactive Weather Map New forecast layout! Learn more

10-Day Weather Forecast

Advertisements
Track Severe Weather on mobile